Time;durP1;ratioP1;P1;durP2;ratioP2;P2;SDS_P1;SDS_P2;PMS_P1;PMS_P2;Temp;Humidity;BMP_temperature;BMP_pressure;BME280_temperature;BME280_humidity;BME280_pressure;Samples;Min_cycle;Max_cycle;Signal;HPM_P1;HPM_P2
2021/07/12 00:02:20;;;;;;;5.88;3.50;;;;;;;24.01;42.82;100158.22;6157218;23;20005;-63
2021/07/12 00:04:46;;;;;;;4.40;3.70;;;;;;;24.04;43.64;100171.53;6184629;23;20009;-64
2021/07/12 00:07:11;;;;;;;4.65;3.47;;;;;;;24.02;43.40;100168.16;6184034;23;20009;-62
2021/07/12 00:09:37;;;;;;;8.32;3.67;;;;;;;23.98;43.60;100164.09;6184133;23;20355;-61
2021/07/12 00:12:03;;;;;;;6.30;3.95;;;;;;;23.93;43.77;100172.91;6184094;23;20012;-63
2021/07/12 00:14:28;;;;;;;5.53;3.92;;;;;;;23.93;43.93;100168.31;6183595;23;20013;-64
2021/07/12 00:16:54;;;;;;;3.78;3.40;;;;;;;23.86;44.13;100172.06;6183884;23;20339;-63
2021/07/12 00:19:19;;;;;;;4.25;3.40;;;;;;;23.77;44.68;100174.09;6183855;23;20059;-63
2021/07/12 00:21:46;;;;;;;5.15;3.72;;;;;;;23.66;44.42;100148.19;6183957;23;20001;-63
2021/07/12 00:24:12;;;;;;;4.43;3.53;;;;;;;23.79;44.06;100167.41;6183327;23;20009;-63
2021/07/12 00:26:37;;;;;;;4.10;3.70;;;;;;;23.69;44.50;100163.34;6183923;23;20356;-63
2021/07/12 00:29:03;;;;;;;3.78;3.47;;;;;;;23.70;44.69;100176.78;6183820;23;20008;-64
2021/07/12 00:31:28;;;;;;;5.60;4.03;;;;;;;23.65;44.76;100182.88;6183817;23;20076;-64
2021/07/12 00:33:54;;;;;;;5.93;3.80;;;;;;;23.61;44.98;100172.56;6184030;23;20009;-64
2021/07/12 00:36:19;;;;;;;4.93;4.07;;;;;;;23.53;44.91;100168.09;6182411;23;20009;-61
2021/07/12 00:38:45;;;;;;;6.68;3.40;;;;;;;23.58;44.71;100176.53;6181811;23;20056;-62
2021/07/12 00:41:10;;;;;;;8.00;3.88;;;;;;;23.56;44.85;100173.16;6181058;23;20005;-61
2021/07/12 00:43:36;;;;;;;4.45;3.45;;;;;;;23.48;45.07;100170.59;6181119;23;20582;-64
2021/07/12 00:46:02;;;;;;;3.95;3.50;;;;;;;23.44;45.05;100178.34;6181152;23;20004;-64
2021/07/12 00:48:28;;;;;;;3.60;3.30;;;;;;;23.36;45.50;100173.03;6181632;23;20005;-63
2021/07/12 00:50:54;;;;;;;4.10;3.45;;;;;;;23.31;45.61;100181.00;6181646;23;20023;-64
2021/07/12 00:53:20;;;;;;;3.60;3.30;;;;;;;23.28;45.49;100184.13;6181677;23;20668;-65
2021/07/12 00:55:50;;;;;;;5.38;3.80;;;;;;;23.33;45.15;100189.81;6182620;23;20033;-65
2021/07/12 00:58:19;;;;;;;4.22;3.83;;;;;;;23.23;45.27;100171.84;6183463;23;20071;-63
2021/07/12 01:00:48;;;;;;;4.32;3.85;;;;;;;23.26;45.48;100173.38;6183485;23;20012;-63
2021/07/12 01:03:16;;;;;;;4.05;3.65;;;;;;;23.22;46.00;100180.25;6182611;23;20005;-64
2021/07/12 01:05:42;;;;;;;4.68;3.42;;;;;;;23.19;45.93;100180.66;6183349;23;20096;-58
2021/07/12 01:08:08;;;;;;;4.78;3.90;;;;;;;23.19;45.63;100175.19;6183903;23;20076;-65
2021/07/12 01:10:34;;;;;;;5.60;3.83;;;;;;;23.33;45.62;100189.81;6183829;23;20084;-65
2021/07/12 01:13:21;;;;;;;5.10;3.63;;;;;;;23.44;44.88;100196.63;6183005;23;20012;-66
2021/07/12 01:16:08;;;;;;;5.22;4.15;;;;;;;23.43;45.26;100192.22;6183258;23;20023;-66
2021/07/12 01:18:41;;;;;;;4.07;3.67;;;;;;;23.35;45.52;100191.28;6183936;23;20017;-63
2021/07/12 01:21:44;;;;;;;7.68;3.90;;;;;;;23.44;45.12;100196.63;6183174;23;20081;-64
2021/07/12 01:24:40;;;;;;;10.57;4.70;;;;;;;23.49;44.87;100205.06;6156933;23;20013;-66
2021/07/12 01:27:42;;;;;;;4.55;3.72;;;;;;;23.23;45.24;100173.75;6183463;23;20008;-65
2021/07/12 01:30:17;;;;;;;4.85;3.80;;;;;;;23.25;46.30;100203.59;6183367;23;19998;-65
2021/07/12 01:32:42;;;;;;;7.97;4.45;;;;;;;23.14;46.87;100202.22;6183254;23;20020;-65
2021/07/12 01:35:35;;;;;;;5.85;4.15;;;;;;;23.23;45.91;100196.44;6182651;23;20009;-67
2021/07/12 01:38:15;;;;;;;5.57;4.47;;;;;;;23.14;46.87;100207.69;6180972;23;20407;-64
2021/07/12 01:40:49;;;;;;;8.35;4.45;;;;;;;23.09;47.32;100209.13;6154940;23;20296;-63
2021/07/12 01:43:41;;;;;;;9.98;4.38;;;;;;;23.19;46.09;100206.06;6180223;23;20009;-63
2021/07/12 01:46:14;;;;;;;5.80;4.50;;;;;;;23.22;46.61;100205.66;6180585;23;20012;-64
2021/07/12 01:49:08;;;;;;;6.03;4.38;;;;;;;23.28;46.30;100214.16;6180720;23;20008;-63
2021/07/12 01:52:09;;;;;;;5.05;4.55;;;;;;;23.32;46.00;100220.91;6180418;23;20015;-65
2021/07/12 01:54:53;;;;;;;10.38;4.28;;;;;;;23.18;47.28;100211.75;6180505;23;20013;-65
2021/07/12 01:57:26;;;;;;;6.05;4.15;;;;;;;23.07;46.93;100203.03;6181924;23;20009;-65
2021/07/12 01:59:58;;;;;;;8.38;4.57;;;;;;;23.27;46.30;100223.38;6182951;23;20001;-65
2021/07/12 02:02:28;;;;;;;5.63;4.28;;;;;;;23.20;46.70;100220.59;6182752;23;20084;-64
2021/07/12 02:04:57;;;;;;;6.65;4.30;;;;;;;23.17;46.88;100226.44;6182768;23;20411;-67
2021/07/12 02:07:24;;;;;;;5.90;4.65;;;;;;;23.27;46.87;100218.78;6183017;23;20344;-66
2021/07/12 02:09:50;;;;;;;6.65;4.47;;;;;;;23.21;46.78;100234.03;6182721;23;20404;-67
2021/07/12 02:12:18;;;;;;;5.70;4.43;;;;;;;23.14;47.26;100229.53;6156389;23;20449;-63
2021/07/12 02:14:44;;;;;;;4.57;4.10;;;;;;;23.10;47.66;100226.38;6183498;23;20005;-66
2021/07/12 02:17:11;;;;;;;5.82;4.30;;;;;;;23.07;47.46;100227.59;6185311;23;20024;-65
2021/07/12 02:19:38;;;;;;;5.90;4.13;;;;;;;23.02;46.98;100194.59;6184802;23;20009;-65
2021/07/12 02:22:04;;;;;;;7.05;4.30;;;;;;;23.32;46.96;100227.22;6184577;23;20009;-64
2021/07/12 02:24:32;;;;;;;5.30;4.50;;;;;;;23.32;46.44;100199.91;6184938;23;20047;-65
2021/07/12 02:26:59;;;;;;;4.53;4.10;;;;;;;23.63;45.85;100211.47;6158537;23;20382;-65
2021/07/12 02:29:26;;;;;;;5.25;4.15;;;;;;;23.83;45.77;100230.69;6184742;23;20101;-66
2021/07/12 02:31:53;;;;;;;5.47;4.40;;;;;;;23.86;45.45;100200.22;6184497;23;20008;-66
2021/07/12 02:34:20;;;;;;;7.47;4.22;;;;;;;24.24;44.38;100223.59;6185227;23;20009;-65
2021/07/12 02:36:47;;;;;;;8.13;4.28;;;;;;;24.45;43.96;100230.81;6185148;23;20005;-66
2021/07/12 02:39:13;;;;;;;5.55;4.18;;;;;;;24.70;43.56;100226.63;6182314;23;20004;-59
2021/07/12 02:41:40;;;;;;;4.97;4.28;;;;;;;25.00;42.66;100229.88;6182164;23;20028;-66
2021/07/12 02:44:10;;;;;;;6.03;4.18;;;;;;;25.22;42.02;100229.69;6183081;23;20001;-66
2021/07/12 02:46:38;;;;;;;5.60;4.32;;;;;;;25.35;41.27;100229.69;6184712;23;20017;-65
2021/07/12 02:49:03;;;;;;;8.32;4.38;;;;;;;25.37;41.46;100221.25;6184508;23;20024;-66
2021/07/12 02:51:38;;;;;;;4.55;4.15;;;;;;;25.39;41.64;100229.25;6184869;23;20028;-67
2021/07/12 02:54:08;;;;;;;7.78;4.07;;;;;;;25.24;41.68;100227.56;6185287;23;20005;-67
2021/07/12 02:56:34;;;;;;;6.57;4.00;;;;;;;25.09;41.99;100219.56;6184930;23;20009;-68
2021/07/12 02:58:59;;;;;;;7.50;3.97;;;;;;;24.90;42.33;100221.25;6184631;23;20005;-67
2021/07/12 03:01:25;;;;;;;6.90;4.18;;;;;;;24.80;42.46;100232.59;6184453;23;20009;-67
2021/07/12 03:03:50;;;;;;;6.78;4.38;;;;;;;24.76;42.60;100226.69;6184884;23;20335;-66
2021/07/12 03:06:19;;;;;;;8.48;4.53;;;;;;;24.74;42.79;100236.97;6184778;23;20295;-67
2021/07/12 03:09:12;;;;;;;6.00;4.40;;;;;;;24.85;42.56;100240.22;6184586;23;20036;-67
2021/07/12 03:11:56;;;;;;;5.28;4.15;;;;;;;24.97;41.93;100251.38;6157991;23;20059;-68
2021/07/12 03:14:47;;;;;;;5.60;4.25;;;;;;;25.41;41.45;100238.09;6136981;23;20021;-66
2021/07/12 03:17:17;;;;;;;5.65;4.38;;;;;;;25.80;39.77;100241.84;6154459;23;20017;-65
2021/07/12 03:19:46;;;;;;;4.70;4.20;;;;;;;26.29;38.72;100225.06;6154430;23;20033;-66
2021/07/12 03:22:14;;;;;;;7.80;4.40;;;;;;;26.82;38.27;100245.06;6154613;23;20025;-66
2021/07/12 03:24:41;;;;;;;4.95;4.18;;;;;;;27.31;36.84;100246.19;6154448;23;20332;-65
2021/07/12 03:27:10;;;;;;;6.85;4.38;;;;;;;27.81;35.77;100238.97;6154198;23;20001;-66
2021/07/12 03:29:38;;;;;;;5.47;4.35;;;;;;;28.31;34.88;100237.13;6154271;23;20127;-67
2021/07/12 03:32:05;;;;;;;7.97;4.50;;;;;;;28.76;33.96;100233.97;6128146;23;20005;-66
2021/07/12 03:34:31;;;;;;;6.22;4.18;;;;;;;29.18;33.09;100235.06;6154259;23;20467;-68
2021/07/12 03:36:59;;;;;;;9.40;4.50;;;;;;;29.67;32.34;100237.59;6154183;23;20002;-67
2021/07/12 03:39:25;;;;;;;5.55;4.10;;;;;;;30.11;31.12;100236.34;6126613;23;20043;-66
2021/07/12 03:41:51;;;;;;;7.55;4.03;;;;;;;30.57;30.14;100228.13;6152335;23;20005;-63
2021/07/12 03:44:17;;;;;;;8.70;4.30;;;;;;;30.96;29.62;100236.63;6151739;23;20381;-66
2021/07/12 03:46:44;;;;;;;4.40;4.00;;;;;;;31.19;29.20;100213.50;6151680;23;20010;-67
2021/07/12 03:49:11;;;;;;;4.90;3.92;;;;;;;31.62;28.58;100240.72;6152161;23;20001;-67
2021/07/12 03:51:40;;;;;;;7.03;3.85;;;;;;;31.96;27.38;100231.50;6151431;23;20476;-65
2021/07/12 03:54:06;;;;;;;8.68;3.78;;;;;;;32.33;26.51;100225.34;6151593;23;20324;-65
2021/07/12 03:56:32;;;;;;;4.88;3.30;;;;;;;32.75;26.20;100224.66;6151599;23;20001;-67
2021/07/12 03:58:58;;;;;;;6.35;3.47;;;;;;;33.20;25.59;100216.19;6151509;23;20028;-66
2021/07/12 04:01:23;;;;;;;4.93;3.15;;;;;;;33.82;24.37;100213.84;6151998;23;20024;-67
2021/07/12 04:03:51;;;;;;;6.03;3.85;;;;;;;34.41;24.02;100222.13;6152690;23;20482;-66
2021/07/12 04:06:17;;;;;;;6.93;3.78;;;;;;;34.92;23.02;100205.53;6151773;23;20029;-66
2021/07/12 04:08:42;;;;;;;6.78;3.90;;;;;;;35.50;22.02;100217.47;6151718;23;20005;-63
2021/07/12 04:11:10;;;;;;;5.85;3.70;;;;;;;36.06;21.51;100221.22;6151594;23;20009;-63
2021/07/12 04:13:36;;;;;;;5.47;3.63;;;;;;;36.36;21.01;100219.41;6162601;23;20481;-65
2021/07/12 04:16:02;;;;;;;7.05;3.60;;;;;;;36.85;20.42;100214.06;6181356;23;20016;-64
2021/07/12 04:18:27;;;;;;;5.75;4.18;;;;;;;37.14;19.80;100225.28;6181664;23;20009;-66
2021/07/12 04:20:52;;;;;;;5.78;3.90;;;;;;;37.73;19.49;100222.47;6182011;23;20297;-61
2021/07/12 04:23:18;;;;;;;6.47;4.28;;;;;;;38.53;18.43;100215.59;6181593;23;20005;-66
2021/07/12 04:25:43;;;;;;;4.63;3.95;;;;;;;39.39;17.58;100216.47;6180642;23;20008;-65
2021/07/12 04:28:09;;;;;;;5.90;4.03;;;;;;;40.00;17.14;100199.53;6181015;23;20065;-68
2021/07/12 04:30:34;;;;;;;4.85;4.35;;;;;;;40.69;16.20;100211.75;6181900;23;20013;-64
2021/07/12 04:33:00;;;;;;;5.82;3.95;;;;;;;41.37;15.91;100217.34;6181183;23;20419;-66
2021/07/12 04:35:26;;;;;;;4.88;4.40;;;;;;;41.64;15.36;100209.03;6181078;23;20068;-66
2021/07/12 04:37:52;;;;;;;6.38;4.30;;;;;;;42.02;14.88;100212.16;6181238;23;20444;-66
2021/07/12 04:40:17;;;;;;;5.50;4.07;;;;;;;42.69;14.49;100217.69;6181546;23;20001;-66
2021/07/12 04:42:43;;;;;;;5.50;4.40;;;;;;;42.86;14.50;100185.00;6180823;23;20009;-67
2021/07/12 04:45:09;;;;;;;4.80;4.25;;;;;;;43.31;13.90;100211.97;6180788;23;20029;-64
2021/07/12 04:47:35;;;;;;;6.70;4.22;;;;;;;43.57;13.16;100209.00;6181339;23;20004;-65
2021/07/12 04:50:00;;;;;;;6.20;4.38;;;;;;;43.53;13.44;100201.56;6181520;23;20012;-66
2021/07/12 04:52:26;;;;;;;6.60;4.32;;;;;;;43.59;13.43;100201.03;6181071;23;20005;-67
2021/07/12 04:54:51;;;;;;;5.28;4.65;;;;;;;44.13;12.80;100201.63;6181635;23;20315;-66
2021/07/12 04:57:17;;;;;;;4.85;4.35;;;;;;;44.82;12.15;100187.22;6180693;23;20012;-68
2021/07/12 04:59:43;;;;;;;4.68;4.20;;;;;;;45.55;11.96;100199.06;6183183;23;19997;-65
2021/07/12 05:02:10;;;;;;;7.20;4.22;;;;;;;46.03;11.76;100210.69;6181238;23;20005;-66
2021/07/12 05:04:36;;;;;;;7.68;4.43;;;;;;;46.31;11.51;100204.31;6180462;23;20016;-66
2021/07/12 05:07:03;;;;;;;5.13;4.20;;;;;;;46.36;11.01;100206.88;6181684;23;20001;-69
2021/07/12 05:09:29;;;;;;;4.53;4.07;;;;;;;46.23;10.82;100183.47;6183454;23;20024;-66
2021/07/12 05:11:54;;;;;;;4.10;3.70;;;;;;;46.68;10.24;100201.34;6183934;23;20001;-69
2021/07/12 05:14:20;;;;;;;4.05;3.75;;;;;;;46.96;9.92;100206.16;6182829;23;20009;-67
2021/07/12 05:16:46;;;;;;;3.92;3.53;;;;;;;47.35;9.97;100204.75;6183523;23;20020;-69
2021/07/12 05:19:15;;;;;;;4.15;3.60;;;;;;;47.94;9.70;100213.47;6157429;23;20082;-67
2021/07/12 05:21:41;;;;;;;4.38;3.83;;;;;;;48.11;9.15;100207.41;6183494;23;20028;-66
2021/07/12 05:24:07;;;;;;;5.38;3.72;;;;;;;48.66;8.96;100206.53;6183208;23;20032;-67
2021/07/12 05:26:32;;;;;;;3.78;3.40;;;;;;;49.10;8.91;100216.72;6156642;23;20019;-67
2021/07/12 05:28:58;;;;;;;3.80;3.50;;;;;;;49.42;8.42;100199.41;6182906;23;20000;-66
2021/07/12 05:31:23;;;;;;;4.68;3.55;;;;;;;49.71;8.36;100207.59;6183410;23;20096;-68
2021/07/12 05:33:49;;;;;;;5.10;3.35;;;;;;;49.92;8.31;100215.66;6182943;23;20004;-66
2021/07/12 05:36:14;;;;;;;3.78;3.42;;;;;;;50.03;8.28;100195.03;6182779;23;20009;-67
2021/07/12 05:38:40;;;;;;;5.05;3.38;;;;;;;50.17;7.45;100208.69;6182761;23;20005;-66
2021/07/12 05:41:06;;;;;;;3.60;3.30;;;;;;;50.27;7.65;100208.00;6183012;23;20055;-66
2021/07/12 05:43:32;;;;;;;6.20;3.28;;;;;;;50.47;7.23;100202.16;6183057;23;20005;-66
2021/07/12 05:45:57;;;;;;;4.15;3.50;;;;;;;50.67;7.04;100202.78;6182951;23;20051;-63
2021/07/12 05:48:23;;;;;;;5.55;3.40;;;;;;;51.09;6.99;100207.31;6183239;23;20001;-68
2021/07/12 05:50:48;;;;;;;4.28;3.63;;;;;;;51.46;6.69;100204.78;6182838;23;20087;-67
2021/07/12 05:53:15;;;;;;;7.25;3.80;;;;;;;51.71;6.58;100187.88;6183023;23;20001;-68
2021/07/12 05:55:41;;;;;;;4.75;3.45;;;;;;;52.28;6.54;100206.50;6182396;23;20373;-65
2021/07/12 05:58:07;;;;;;;4.00;3.60;;;;;;;52.45;6.39;100207.03;6182866;23;20416;-68
2021/07/12 06:00:33;;;;;;;3.83;3.53;;;;;;;52.41;6.30;100215.56;6183092;23;20001;-68
2021/07/12 06:02:59;;;;;;;4.25;3.45;;;;;;;52.21;6.14;100207.28;6182884;23;20089;-68
2021/07/12 06:05:24;;;;;;;3.28;3.00;;;;;;;52.37;6.08;100209.03;6183254;23;20323;-66
2021/07/12 06:07:50;;;;;;;5.30;3.38;;;;;;;52.48;5.90;100206.22;6182890;23;20404;-66
2021/07/12 06:10:15;;;;;;;3.65;3.40;;;;;;;52.56;6.17;100205.00;6182882;23;20001;-68
2021/07/12 06:12:41;;;;;;;4.35;3.13;;;;;;;53.07;5.81;100217.41;6183193;23;20351;-67
2021/07/12 06:15:08;;;;;;;4.82;3.28;;;;;;;53.59;4.90;100212.50;6183497;23;20016;-67
2021/07/12 06:17:34;;;;;;;3.22;3.00;;;;;;;54.36;4.74;100211.91;6183495;23;20001;-68
2021/07/12 06:19:59;;;;;;;4.55;3.92;;;;;;;54.88;4.25;100203.84;6183273;23;20276;-61
2021/07/12 06:22:25;;;;;;;7.60;3.50;;;;;;;55.07;4.18;100214.75;6156709;23;20076;-66
2021/07/12 06:24:51;;;;;;;3.90;3.53;;;;;;;54.71;4.16;100223.59;6183725;23;20016;-67
2021/07/12 06:27:16;;;;;;;4.50;3.17;;;;;;;54.35;4.94;100212.28;6179713;23;20422;-66
2021/07/12 06:29:43;;;;;;;3.40;3.10;;;;;;;54.87;4.39;100211.59;6178280;23;20001;-68
2021/07/12 06:32:08;;;;;;;3.97;3.50;;;;;;;55.60;4.12;100203.22;6178899;23;20131;-67
2021/07/12 06:34:33;;;;;;;3.78;3.47;;;;;;;56.01;4.00;100184.34;6182917;23;20005;-69
2021/07/12 06:37:00;;;;;;;5.38;4.20;;;;;;;55.67;3.72;100202.34;6183157;23;20374;-70
2021/07/12 06:39:26;;;;;;;4.88;3.88;;;;;;;55.23;3.78;100194.13;6183104;23;20016;-69
2021/07/12 06:41:51;;;;;;;4.68;4.22;;;;;;;55.53;4.12;100208.22;6182696;23;20045;-69
2021/07/12 06:44:16;;;;;;;5.15;3.72;;;;;;;55.80;3.91;100199.72;6183313;23;20009;-68
2021/07/12 06:46:42;;;;;;;5.85;4.40;;;;;;;55.92;3.80;100201.22;6183074;23;20415;-68
2021/07/12 06:49:08;;;;;;;4.45;4.03;;;;;;;55.55;4.33;100194.25;6182416;23;20461;-69
2021/07/12 06:51:33;;;;;;;7.35;4.10;;;;;;;55.64;3.91;100191.69;6182532;23;20005;-66
2021/07/12 06:54:00;;;;;;;5.40;4.45;;;;;;;55.89;3.72;100197.19;6183028;23;20009;-69
2021/07/12 06:56:26;;;;;;;4.75;4.43;;;;;;;56.10;4.26;100186.69;6156586;23;20009;-68
2021/07/12 06:58:52;;;;;;;5.07;4.68;;;;;;;55.88;3.87;100200.47;6182556;23;20033;-68
2021/07/12 07:01:18;;;;;;;5.90;5.43;;;;;;;55.03;4.73;100188.16;6156527;23;20033;-68
2021/07/12 07:03:44;;;;;;;6.03;4.75;;;;;;;54.90;4.40;100193.56;6184696;23;20051;-69
2021/07/12 07:06:10;;;;;;;5.82;4.90;;;;;;;55.15;4.49;100192.56;6185009;23;20004;-72
2021/07/12 07:08:35;;;;;;;6.45;5.32;;;;;;;55.63;4.22;100184.31;6183957;23;20005;-69
2021/07/12 07:11:01;;;;;;;5.35;4.75;;;;;;;55.34;4.55;100191.13;6185004;23;20001;-72
2021/07/12 07:13:27;;;;;;;5.10;4.70;;;;;;;55.29;4.26;100193.66;6184932;23;20020;-71
2021/07/12 07:15:52;;;;;;;5.28;4.78;;;;;;;55.41;4.09;100196.03;6185352;23;20005;-72
2021/07/12 07:18:18;;;;;;;5.70;4.95;;;;;;;55.38;4.02;100173.94;6184453;23;20009;-71
2021/07/12 07:20:44;;;;;;;6.05;5.45;;;;;;;55.60;4.17;100197.47;6184943;23;20005;-70
2021/07/12 07:23:10;;;;;;;6.85;5.25;;;;;;;56.29;4.04;100210.22;6158030;23;20075;-72
2021/07/12 07:25:35;;;;;;;5.88;5.38;;;;;;;56.51;3.53;100205.03;6156102;23;20013;-68
2021/07/12 07:28:02;;;;;;;5.10;4.68;;;;;;;57.10;3.28;100216.50;6157659;23;20432;-67
2021/07/12 07:30:28;;;;;;;10.13;5.50;;;;;;;57.09;2.81;100206.22;6183877;23;20072;-73
2021/07/12 07:32:54;;;;;;;5.43;5.05;;;;;;;57.00;3.23;100198.16;6183625;23;20005;-66
2021/07/12 07:35:20;;;;;;;6.05;5.53;;;;;;;57.16;3.28;100195.41;6183531;23;20052;-67
2021/07/12 07:37:46;;;;;;;6.07;5.72;;;;;;;56.88;3.49;100203.22;6156567;23;20005;-67
2021/07/12 07:40:13;;;;;;;6.30;5.70;;;;;;;56.78;3.00;100199.28;6181626;23;20080;-66
2021/07/12 07:42:39;;;;;;;6.38;5.88;;;;;;;57.01;3.18;100202.66;6183935;23;20032;-69
2021/07/12 07:45:07;;;;;;;5.90;5.40;;;;;;;57.15;3.43;100211.03;6183582;23;20088;-67
2021/07/12 07:47:33;;;;;;;5.53;5.13;;;;;;;57.29;2.79;100198.50;6184216;23;20005;-67
2021/07/12 07:49:59;;;;;;;6.15;5.65;;;;;;;57.82;2.40;100200.78;6183691;23;20008;-70
2021/07/12 07:52:24;;;;;;;6.45;6.00;;;;;;;57.62;2.70;100192.13;6183252;23;20399;-68
2021/07/12 07:54:50;;;;;;;6.75;5.68;;;;;;;56.96;2.85;100191.66;6183484;23;20380;-69
2021/07/12 07:57:16;;;;;;;6.90;6.30;;;;;;;56.76;2.71;100190.28;6183420;23;20008;-71
2021/07/12 07:59:43;;;;;;;5.97;5.57;;;;;;;57.00;2.67;100180.91;6183561;23;20100;-66
2021/07/12 08:02:08;;;;;;;6.78;6.13;;;;;;;57.46;2.99;100182.13;6157849;23;20009;-70
2021/07/12 08:04:34;;;;;;;7.60;6.88;;;;;;;57.46;3.00;100178.44;6183653;23;20060;-70
2021/07/12 08:06:59;;;;;;;7.93;7.28;;;;;;;57.38;2.95;100192.16;6183952;23;20428;-68
2021/07/12 08:09:25;;;;;;;7.93;7.18;;;;;;;56.88;3.49;100193.81;6183872;23;20009;-69
2021/07/12 08:11:51;;;;;;;7.28;6.70;;;;;;;56.17;3.69;100185.75;6184206;23;20004;-70
2021/07/12 08:14:18;;;;;;;6.70;6.20;;;;;;;55.38;4.18;100188.28;6183114;23;20039;-71
2021/07/12 08:16:44;;;;;;;6.13;5.65;;;;;;;54.85;4.42;100171.06;6183365;23;20009;-69
2021/07/12 08:19:09;;;;;;;6.60;6.13;;;;;;;54.55;4.53;100168.81;6157087;23;20005;-63
2021/07/12 08:21:35;;;;;;;5.68;5.28;;;;;;;53.85;4.77;100176.88;6132453;23;20036;-69
2021/07/12 08:24:01;;;;;;;5.70;5.15;;;;;;;52.79;5.12;100173.25;6183966;23;20108;-73
2021/07/12 08:26:26;;;;;;;4.93;4.35;;;;;;;50.19;6.89;100167.19;6184005;23;20020;-72
2021/07/12 08:28:52;;;;;;;5.85;4.07;;;;;;;47.10;8.84;100170.91;6183056;23;20009;-69
2021/07/12 08:31:17;;;;;;;4.50;3.70;;;;;;;44.08;11.12;100154.66;6132660;23;20032;-70
2021/07/12 08:33:44;;;;;;;7.80;4.03;;;;;;;41.82;13.27;100177.03;6182854;23;20116;-69
2021/07/12 08:36:10;;;;;;;5.18;3.67;;;;;;;39.89;14.77;100182.13;6156947;23;20015;-68
2021/07/12 08:38:35;;;;;;;11.60;4.22;;;;;;;37.92;16.92;100175.03;6184069;23;20044;-70
2021/07/12 08:41:01;;;;;;;4.10;3.60;;;;;;;36.89;18.09;100171.34;6183612;23;20033;-65
2021/07/12 08:43:27;;;;;;;5.93;4.10;;;;;;;36.27;18.84;100165.38;6183003;23;20037;-69
2021/07/12 08:45:52;;;;;;;6.00;3.85;;;;;;;35.88;19.80;100162.22;6182991;23;20014;-64
2021/07/12 08:48:18;;;;;;;4.53;3.35;;;;;;;35.52;19.97;100140.09;6156116;23;20063;-63
2021/07/12 08:50:47;;;;;;;4.78;3.80;;;;;;;35.33;19.71;100159.34;6182543;23;20465;-67
2021/07/12 08:53:15;;;;;;;6.57;3.92;;;;;;;34.91;19.97;100142.69;6182663;23;20071;-67
2021/07/12 08:55:43;;;;;;;4.38;3.42;;;;;;;35.00;20.18;100168.03;6182219;23;20028;-68
2021/07/12 08:58:27;;;;;;;4.45;4.05;;;;;;;34.78;20.04;100132.97;6183604;23;20001;-66
2021/07/12 09:01:02;;;;;;;5.90;3.55;;;;;;;34.81;19.69;100155.75;6157398;23;20072;-67
2021/07/12 09:03:29;;;;;;;4.95;3.60;;;;;;;34.54;20.17;100151.31;6181682;23;20770;-67
2021/07/12 09:05:56;;;;;;;5.57;3.22;;;;;;;34.40;19.46;100154.59;6182757;23;20005;-70
2021/07/12 09:08:36;;;;;;;4.53;3.22;;;;;;;34.06;19.43;100167.00;6184011;23;20387;-70
2021/07/12 09:11:29;;;;;;;5.13;3.47;;;;;;;33.86;19.82;100153.88;6182995;23;20005;-66
2021/07/12 09:13:59;;;;;;;4.07;3.67;;;;;;;33.64;20.55;100149.34;6155957;23;20020;-70
2021/07/12 09:16:35;;;;;;;5.80;3.92;;;;;;;33.61;20.20;100149.03;6156483;23;20044;-73
2021/07/12 09:19:29;;;;;;;4.50;3.78;;;;;;;33.60;20.14;100158.47;6182260;23;20424;-68
2021/07/12 09:22:05;;;;;;;3.92;3.60;;;;;;;33.43;19.81;100153.13;6183146;23;20005;-69
2021/07/12 09:24:32;;;;;;;4.97;3.42;;;;;;;33.19;20.69;100140.47;6182651;23;20005;-70
2021/07/12 09:26:59;;;;;;;5.40;3.33;;;;;;;33.34;20.14;100142.50;6182446;23;20009;-69
2021/07/12 09:29:30;;;;;;;3.42;3.08;;;;;;;33.48;20.23;100137.34;6182655;23;20008;-69
2021/07/12 09:32:02;;;;;;;3.63;3.30;;;;;;;33.60;20.59;100142.66;6182430;23;20008;-73
2021/07/12 09:34:30;;;;;;;8.25;3.30;;;;;;;33.75;19.77;100139.13;6182343;23;20016;-71
2021/07/12 09:36:56;;;;;;;3.95;3.30;;;;;;;33.79;19.59;100133.84;6182505;23;20009;-72
2021/07/12 09:39:25;;;;;;;4.47;3.67;;;;;;;33.89;19.33;100149.72;6131356;23;20012;-70
2021/07/12 09:41:53;;;;;;;5.45;3.40;;;;;;;33.85;19.39;100148.56;6155870;23;20088;-71
2021/07/12 09:44:23;;;;;;;3.95;3.60;;;;;;;33.97;19.61;100138.09;6155182;23;20001;-65
2021/07/12 09:46:50;;;;;;;5.55;3.95;;;;;;;33.82;20.00;100144.41;6155883;23;20005;-69
2021/07/12 09:49:20;;;;;;;4.38;3.97;;;;;;;33.59;20.81;100141.00;6155929;23;20009;-65
2021/07/12 09:51:45;;;;;;;7.30;4.15;;;;;;;33.36;21.64;100137.50;6182362;23;20017;-69
2021/07/12 09:54:36;;;;;;;6.70;4.55;;;;;;;33.45;21.21;100145.34;6155207;23;20095;-66
2021/07/12 09:57:22;;;;;;;4.97;4.22;;;;;;;33.40;20.97;100153.63;6179404;23;20080;-67
2021/07/12 10:00:02;;;;;;;5.15;4.70;;;;;;;33.09;21.57;100151.47;6179945;23;20009;-69
2021/07/12 10:02:34;;;;;;;7.40;4.18;;;;;;;33.06;21.34;100152.03;6182707;23;20009;-70
2021/07/12 10:05:11;;;;;;;4.70;4.20;;;;;;;33.13;21.29;100141.53;6155876;23;20427;-67
2021/07/12 10:07:37;;;;;;;6.15;4.93;;;;;;;32.99;22.20;100115.38;6156304;23;20009;-70
2021/07/12 10:10:13;;;;;;;7.10;4.82;;;;;;;33.28;21.74;100151.91;6181791;23;20020;-67
2021/07/12 10:12:39;;;;;;;7.43;4.68;;;;;;;33.18;22.02;100136.03;6181386;23;20001;-67
2021/07/12 10:15:05;;;;;;;5.05;4.50;;;;;;;33.09;22.45;100104.34;6181169;23;20096;-67
2021/07/12 10:17:31;;;;;;;5.07;4.05;;;;;;;33.29;22.53;100123.06;6181114;23;20995;-66
2021/07/12 10:19:57;;;;;;;4.82;4.15;;;;;;;33.38;21.22;100123.34;6155503;23;20316;-64
2021/07/12 10:22:24;;;;;;;8.20;4.30;;;;;;;33.44;21.79;100121.47;6182422;23;20005;-65
2021/07/12 10:24:51;;;;;;;4.88;3.95;;;;;;;33.48;21.38;100128.16;6181997;23;20446;-70
2021/07/12 10:27:27;;;;;;;8.63;4.47;;;;;;;33.56;21.18;100124.88;6182001;23;19997;-70
2021/07/12 10:30:17;;;;;;;5.60;4.57;;;;;;;33.50;21.30;100126.78;6155441;23;20009;-71
2021/07/12 10:32:51;;;;;;;6.15;4.38;;;;;;;33.36;21.13;100126.41;6182419;23;20005;-68
2021/07/12 10:35:52;;;;;;;6.53;4.60;;;;;;;33.37;21.78;100116.13;6182565;23;20005;-70
2021/07/12 10:38:26;;;;;;;5.72;4.45;;;;;;;33.30;21.68;100121.09;6156725;23;20012;-64
2021/07/12 10:41:01;;;;;;;5.63;4.60;;;;;;;33.36;21.33;100108.91;6155789;23;20431;-74
2021/07/12 10:43:38;;;;;;;6.32;4.03;;;;;;;33.48;21.48;100103.19;6183864;23;20001;-74
2021/07/12 10:46:04;;;;;;;5.47;3.80;;;;;;;33.57;21.98;100097.94;6156980;23;20016;-69
2021/07/12 10:48:35;;;;;;;4.68;4.25;;;;;;;33.73;21.02;100112.72;6156260;23;20088;-71
2021/07/12 10:51:16;;;;;;;8.40;4.28;;;;;;;33.71;21.06;100071.34;6183151;23;20005;-74
2021/07/12 10:53:42;;;;;;;4.30;3.80;;;;;;;33.78;21.04;100087.75;6157751;23;20028;-68
2021/07/12 10:56:11;;;;;;;5.32;4.25;;;;;;;33.85;20.87;100099.44;6184696;23;20008;-68
2021/07/12 10:58:37;;;;;;;4.65;4.18;;;;;;;33.72;21.70;100088.84;6183519;23;20136;-68
2021/07/12 11:01:05;;;;;;;6.53;4.30;;;;;;;33.67;21.47;100097.16;6183189;23;20008;-69
2021/07/12 11:03:51;;;;;;;6.55;4.80;;;;;;;33.76;21.52;100084.41;6157676;23;20430;-69
2021/07/12 11:06:22;;;;;;;10.65;5.55;;;;;;;33.42;22.30;100091.25;6183790;23;20381;-68
2021/07/12 11:08:48;;;;;;;8.57;5.13;;;;;;;33.10;23.32;100100.44;6183533;23;20108;-66
2021/07/12 11:11:20;;;;;;;7.45;4.93;;;;;;;32.99;22.79;100098.72;6183569;23;20045;-66
2021/07/12 11:13:56;;;;;;;8.07;5.60;;;;;;;33.01;23.41;100089.03;6132240;23;20028;-71
2021/07/12 11:16:34;;;;;;;7.20;4.80;;;;;;;33.14;23.06;100095.22;6183685;23;20013;-74
2021/07/12 11:19:18;;;;;;;5.43;4.80;;;;;;;33.33;22.50;100101.97;6183709;23;20094;-72
2021/07/12 11:21:43;;;;;;;11.90;4.97;;;;;;;33.20;22.46;100088.59;6183240;23;20084;-75
2021/07/12 11:24:11;;;;;;;5.60;5.10;;;;;;;33.32;22.62;100097.53;6183572;23;20085;-73
2021/07/12 11:26:40;;;;;;;5.57;5.00;;;;;;;33.28;22.70;100087.25;6183560;23;20017;-71
2021/07/12 11:29:18;;;;;;;6.47;4.90;;;;;;;33.43;22.30;100090.13;6183950;23;20083;-72
2021/07/12 11:31:55;;;;;;;7.63;4.70;;;;;;;33.56;22.28;100094.34;6185639;23;20276;-75
2021/07/12 11:34:35;;;;;;;6.53;5.25;;;;;;;33.56;22.18;100085.19;6183413;23;20020;-68
2021/07/12 11:37:23;;;;;;;6.82;4.82;;;;;;;33.52;22.09;100090.47;6184160;23;20427;-72